Time;durP1;ratioP1;P1;durP2;ratioP2;P2;SDS_P1;SDS_P2;PMS_P1;PMS_P2;Temp;Humidity;BMP_temperature;BMP_pressure;BME280_temperature;BME280_humidity;BME280_pressure;Samples;Min_cycle;Max_cycle;Signal;HPM_P1;HPM_P2
2019/04/05 14:48:18;;;;;;;28.4;21.9;;;;;;;10.91;54.24316;946.4717;;;;
2019/04/05 14:50:43;;;;;;;27.6;21.4;;;;;;;10.47;56.20703;946.473;;;;
2019/04/05 14:53:08;;;;;;;28.5;20.8;;;;;;;10.02;58.64844;946.5076;;;;
2019/04/05 14:55:34;;;;;;;27.2;20.8;;;;;;;10.33;58.78418;946.447;;;;
2019/04/05 14:57:59;;;;;;;29;21.4;;;;;;;9.98;60.84375;946.4063;;;;
2019/04/05 15:00:24;;;;;;;31;22.9;;;;;;;9.75;62.18262;946.4337;;;;
2019/04/05 15:02:49;;;;;;;30.3;22.3;;;;;;;9.52;62.42578;946.4246;;;;
2019/04/05 15:05:14;;;;;;;31.3;22.7;;;;;;;9.45;63.49805;946.3769;;;;
2019/04/05 15:07:41;;;;;;;32.3;23.8;;;;;;;10.03;61.64648;946.4034;;;;
2019/04/05 15:10:06;;;;;;;35.1;24.5;;;;;;;9.8;62.31543;946.4073;;;;
2019/04/05 15:12:34;;;;;;;33.3;24.4;;;;;;;9.69;61.60938;946.327;;;;
2019/04/05 15:14:59;;;;;;;36.9;24.8;;;;;;;9.79;61.75;946.3661;;;;
2019/04/05 15:17:24;;;;;;;35.8;25.1;;;;;;;9.94;62.15332;946.4316;;;;
2019/04/05 15:19:49;;;;;;;34.1;24;;;;;;;10.23;60.94922;946.366;;;;
2019/04/05 15:22:15;;;;;;;33.9;24.9;;;;;;;10.59;59.9375;946.3936;;;;
2019/04/05 15:24:40;;;;;;;34.8;25;;;;;;;10.2;60.28711;946.4001;;;;
2019/04/05 15:27:05;;;;;;;34.9;26.2;;;;;;;10.08;61.42383;946.3633;;;;
2019/04/05 15:29:31;;;;;;;36.8;25.6;;;;;;;9.98;61.58105;946.4317;;;;
2019/04/05 15:31:56;;;;;;;33.4;24.6;;;;;;;9.59;62.88477;946.3649;;;;
2019/04/05 15:34:21;;;;;;;35.3;25;;;;;;;9.88;62.0625;946.4658;;;;
2019/04/05 15:36:46;;;;;;;34.7;25.1;;;;;;;9.43;63.71289;946.4437;;;;
2019/04/05 15:39:13;;;;;;;33.6;24.5;;;;;;;9.15;64.08594;946.418;;;;
2019/04/05 15:41:38;;;;;;;33.7;24.2;;;;;;;9.63;63.62793;946.483;;;;
2019/04/05 15:44:04;;;;;;;35.4;23.8;;;;;;;9.31;64.55859;946.4841;;;;
2019/04/05 15:46:29;;;;;;;33.2;23.6;;;;;;;9.2;64.54297;946.4969;;;;
2019/04/05 15:48:54;;;;;;;33.2;23.2;;;;;;;9.52;63.55371;946.497;;;;
2019/04/05 15:51:21;;;;;;;28.5;21.7;;;;;;;9.47;62.94824;946.4988;;;;
2019/04/05 15:53:46;;;;;;;29.9;21.7;;;;;;;9.67;61.63086;946.4863;;;;
2019/04/05 15:56:13;;;;;;;30.3;21.7;;;;;;;9.45;62.02539;946.4623;;;;
2019/04/05 15:58:39;;;;;;;31;21.4;;;;;;;9.2;63.61133;946.3859;;;;
2019/04/05 16:01:04;;;;;;;30.3;20.7;;;;;;;9.5;61.22559;946.3879;;;;
2019/04/05 16:03:29;;;;;;;28.7;21.7;;;;;;;9.33;62.03027;946.379;;;;
2019/04/05 16:05:55;;;;;;;30.2;21.6;;;;;;;9.67;61.49121;946.4146;;;;
2019/04/05 16:08:21;;;;;;;29.9;21.3;;;;;;;9.82;61.01758;946.4722;;;;
2019/04/05 16:10:46;;;;;;;25.2;18.5;;;;;;;9.74;60.67285;946.4698;;;;
2019/04/05 16:13:12;;;;;;;25.2;18.5;;;;;;;9.8;60.10449;946.488;;;;
2019/04/05 16:15:37;;;;;;;24.5;18.6;;;;;;;9.69;59.99707;946.5442;;;;
2019/04/05 16:18:05;;;;;;;25.1;19.7;;;;;;;9.91;59.5791;946.5041;;;;
2019/04/05 16:20:30;;;;;;;26.4;19.9;;;;;;;9.4;60.86621;946.5161;;;;
2019/04/05 16:22:56;;;;;;;30;21.5;;;;;;;9.33;62.35352;946.5489;;;;
2019/04/05 16:25:21;;;;;;;28.3;21.2;;;;;;;9.33;62.00684;946.5577;;;;
2019/04/05 16:27:48;;;;;;;28.8;21.4;;;;;;;9.36;62.71387;946.5796;;;;
2019/04/05 16:30:13;;;;;;;29.6;21.8;;;;;;;9.32;62.56934;946.5204;;;;
2019/04/05 16:32:40;;;;;;;28.5;21.6;;;;;;;9.3;63.06152;946.5361;;;;
2019/04/05 16:35:05;;;;;;;32.4;24.1;;;;;;;9.32;63.65137;946.5214;;;;
2019/04/05 16:37:45;;;;;;;31.3;23.4;;;;;;;9.1;64.26172;946.5306;;;;
2019/04/05 16:40:08;;;;;;;32.9;24.4;;;;;;;9.21;64.39453;946.5295;;;;
2019/04/05 16:42:33;;;;;;;32.3;24;;;;;;;9.22;64.70605;946.5159;;;;
2019/04/05 16:44:58;;;;;;;35.6;24.2;;;;;;;9.14;65.7168;946.5643;;;;
2019/04/05 16:47:23;;;;;;;35.3;24.7;;;;;;;9.04;65.55371;946.5714;;;;
2019/04/05 16:49:49;;;;;;;34.5;25.2;;;;;;;8.91;66.05078;946.6047;;;;
2019/04/05 16:52:14;;;;;;;35.7;24.7;;;;;;;9.04;65.5752;946.6401;;;;
2019/04/05 16:54:40;;;;;;;36.4;26.4;;;;;;;8.86;65.8584;946.6151;;;;
2019/04/05 16:57:05;;;;;;;35.5;25.5;;;;;;;8.86;66.28516;946.5974;;;;
2019/04/05 16:59:31;;;;;;;33.3;25.1;;;;;;;9.26;64.75879;946.6772;;;;
2019/04/05 17:01:57;;;;;;;34.4;24.9;;;;;;;9.1;64.58398;946.6199;;;;
2019/04/05 17:04:22;;;;;;;38.6;26.9;;;;;;;8.99;66.04004;946.6584;;;;
2019/04/05 17:06:47;;;;;;;35.2;25.9;;;;;;;8.96;65.70117;946.6669;;;;
2019/04/05 17:09:13;;;;;;;34;25.6;;;;;;;9.17;66.18262;946.6539;;;;
2019/04/05 17:11:39;;;;;;;36.4;25.9;;;;;;;8.94;66.46875;946.6862;;;;
2019/04/05 17:14:03;;;;;;;34.8;26.6;;;;;;;8.8;66.63184;946.6174;;;;
2019/04/05 17:16:45;;;;;;;36.2;26.3;;;;;;;8.71;67.54883;946.6881;;;;
2019/04/05 17:19:09;;;;;;;36.2;27;;;;;;;9;65.50195;946.6486;;;;
2019/04/05 17:21:34;;;;;;;35.7;26.6;;;;;;;8.81;66.00195;946.6117;;;;
2019/04/05 17:24:10;;;;;;;39.7;27.6;;;;;;;8.83;66.64746;946.6226;;;;
2019/04/05 17:26:35;;;;;;;39.7;28.2;;;;;;;8.87;66.53906;946.6819;;;;
2019/04/05 17:28:59;;;;;;;41.4;28.9;;;;;;;8.56;68.11035;946.6926;;;;
2019/04/05 17:31:24;;;;;;;42.2;30.2;;;;;;;8.69;67.40625;946.7921;;;;
2019/04/05 17:33:49;;;;;;;41;29;;;;;;;8.68;68.3125;946.8067;;;;
2019/04/05 17:36:14;;;;;;;39.4;28.7;;;;;;;8.53;68.08301;946.8452;;;;
2019/04/05 17:38:40;;;;;;;39.5;28.3;;;;;;;8.59;68.05762;946.8467;;;;
2019/04/05 17:41:05;;;;;;;41.4;29.9;;;;;;;8.58;68.34473;946.8898;;;;
2019/04/05 17:43:32;;;;;;;43;30.2;;;;;;;8.64;68.12207;946.9132;;;;
2019/04/05 17:45:57;;;;;;;41.5;29.2;;;;;;;8.46;68.85254;946.8447;;;;
2019/04/05 17:48:24;;;;;;;40.1;29.7;;;;;;;8.59;68.06836;946.902;;;;
2019/04/05 17:50:49;;;;;;;41.1;28.8;;;;;;;8.61;67.95703;946.9373;;;;
2019/04/05 17:53:15;;;;;;;39.5;29.2;;;;;;;8.6;68.4834;946.9392;;;;
2019/04/05 17:55:40;;;;;;;42.3;29.1;;;;;;;8.61;68.85254;947.0226;;;;
2019/04/05 17:58:05;;;;;;;38.6;27.1;;;;;;;8.46;68.95508;946.9554;;;;
2019/04/05 18:00:30;;;;;;;39.1;28.6;;;;;;;8.39;68.86328;946.9938;;;;
2019/04/05 18:02:55;;;;;;;40.2;28.2;;;;;;;8.43;68.91602;946.9247;;;;
2019/04/05 18:05:20;;;;;;;40.3;30.4;;;;;;;8.49;68.66211;946.9988;;;;
2019/04/05 18:07:46;;;;;;;40.3;29;;;;;;;8.52;68.89746;947.0413;;;;
2019/04/05 18:10:11;;;;;;;39.1;28.8;;;;;;;8.53;68.87598;947.0531;;;;
2019/04/05 18:12:37;;;;;;;39.2;28.2;;;;;;;8.48;68.94727;946.9958;;;;
2019/04/05 18:15:02;;;;;;;38.7;29.7;;;;;;;8.6;68.83984;947.054;;;;
2019/04/05 18:17:27;;;;;;;39.6;26.9;;;;;;;8.46;69.04688;947.028;;;;
2019/04/05 18:19:54;;;;;;;32.7;23.8;;;;;;;8.42;68.69727;947.0403;;;;
2019/04/05 18:22:19;;;;;;;34.1;25.1;;;;;;;8.32;68.45117;947.0691;;;;
2019/04/05 18:24:44;;;;;;;33.7;24;;;;;;;8.32;68.22168;947.1409;;;;
2019/04/05 18:27:09;;;;;;;31.5;24.1;;;;;;;8.46;67.14063;947.13;;;;
2019/04/05 18:29:35;;;;;;;33.7;23.8;;;;;;;8.36;68.35352;947.1794;;;;
2019/04/05 18:32:00;;;;;;;31.5;23.4;;;;;;;8.4;67.88965;947.2468;;;;
2019/04/05 18:34:27;;;;;;;33.1;24;;;;;;;8.38;67.61035;947.2241;;;;
2019/04/05 18:36:52;;;;;;;32.2;22.4;;;;;;;8.48;67.73047;947.1997;;;;
2019/04/05 18:39:18;;;;;;;31.9;24.3;;;;;;;8.45;68.42676;947.2287;;;;
2019/04/05 18:41:44;;;;;;;32.3;24.3;;;;;;;8.42;67.91699;947.2316;;;;
2019/04/05 18:44:18;;;;;;;33.8;25.7;;;;;;;8.52;67.99023;947.2326;;;;
2019/04/05 18:46:55;;;;;;;31.1;23.9;;;;;;;8.51;67.53906;947.2472;;;;
2019/04/05 18:49:20;;;;;;;33.6;25;;;;;;;8.46;67.70313;947.2869;;;;
2019/04/05 18:51:45;;;;;;;30.8;23;;;;;;;8.34;67.6748;947.296;;;;
2019/04/05 18:54:11;;;;;;;32.1;24.5;;;;;;;8.35;68.29492;947.3077;;;;
2019/04/05 18:56:36;;;;;;;30.5;22.5;;;;;;;8.35;67.84863;947.3028;;;;
2019/04/05 18:59:01;;;;;;;29.7;22.4;;;;;;;8.38;67.59863;947.3134;;;;
2019/04/05 19:01:26;;;;;;;34.2;24.4;;;;;;;8.43;67.8252;947.4434;;;;
2019/04/05 19:03:52;;;;;;;33.8;24.9;;;;;;;8.29;68.0332;947.3571;;;;
2019/04/05 19:06:17;;;;;;;31.4;23;;;;;;;8.34;68.21289;947.4409;;;;
2019/04/05 19:08:44;;;;;;;30.1;22.4;;;;;;;8.38;68.55176;947.4408;;;;
2019/04/05 19:11:09;;;;;;;33.1;23;;;;;;;8.53;67.95508;947.415;;;;
2019/04/05 19:13:35;;;;;;;34.6;23.6;;;;;;;8.5;67.75586;947.4695;;;;
2019/04/05 19:16:00;;;;;;;32.6;23.1;;;;;;;8.61;67.25586;947.4219;;;;
2019/04/05 19:18:27;;;;;;;30.7;23.2;;;;;;;8.5;67.62988;947.4861;;;;
2019/04/05 19:20:52;;;;;;;32.7;24.1;;;;;;;8.33;68.37207;947.5145;;;;
2019/04/05 19:23:19;;;;;;;31.9;23.3;;;;;;;8.38;68.31152;947.5379;;;;
2019/04/05 19:25:44;;;;;;;33.4;24.9;;;;;;;8.31;69.01367;947.5582;;;;
2019/04/05 19:28:10;;;;;;;32.9;24.4;;;;;;;8.4;68.29199;947.4929;;;;
2019/04/05 19:30:35;;;;;;;32.6;25.2;;;;;;;8.4;68.49805;947.5576;;;;
2019/04/05 19:33:01;;;;;;;34;24.6;;;;;;;8.35;68.73047;947.4861;;;;
2019/04/05 19:35:25;;;;;;;32.5;24.6;;;;;;;8.35;68.11133;947.5244;;;;
2019/04/05 19:37:51;;;;;;;33.1;23.9;;;;;;;8.28;68.2959;947.46;;;;
2019/04/05 19:40:15;;;;;;;33.5;25.1;;;;;;;8.21;68.46875;947.46;;;;
2019/04/05 19:42:41;;;;;;;30.7;23.5;;;;;;;8.21;68.46875;947.5707;;;;
2019/04/05 19:45:06;;;;;;;33.7;23.5;;;;;;;8.3;67.9082;947.5895;;;;
2019/04/05 19:47:31;;;;;;;33.5;23;;;;;;;8.32;68.02637;947.5876;;;;
2019/04/05 19:49:56;;;;;;;33.7;24.9;;;;;;;8.09;68.72363;947.5927;;;;
2019/04/05 19:52:21;;;;;;;33.1;24.4;;;;;;;8.24;68.43848;947.6183;;;;
2019/04/05 19:54:47;;;;;;;31.1;23.7;;;;;;;8.26;68.19043;947.6537;;;;
2019/04/05 19:57:12;;;;;;;33.2;24.4;;;;;;;8.31;67.91992;947.6102;;;;
2019/04/05 19:59:38;;;;;;;30.7;23.5;;;;;;;8.27;68.35059;947.6184;;;;
2019/04/05 20:02:03;;;;;;;33.8;23.8;;;;;;;8.18;68.52051;947.6252;;;;
2019/04/05 20:04:30;;;;;;;32.2;23.4;;;;;;;8.16;68.57617;947.6652;;;;
2019/04/05 20:06:55;;;;;;;31.6;23.6;;;;;;;8.02;69.67578;947.6986;;;;
2019/04/05 20:09:21;;;;;;;33.5;24.9;;;;;;;8.02;69.5957;947.6476;;;;
2019/04/05 20:11:46;;;;;;;34.2;24.8;;;;;;;7.91;70.00391;947.7019;;;;
2019/04/05 20:14:12;;;;;;;34.6;26.4;;;;;;;7.95;69.86133;947.6299;;;;
2019/04/05 20:16:42;;;;;;;34.3;24.9;;;;;;;7.87;70.22656;947.6307;;;;
2019/04/05 20:19:07;;;;;;;33.2;24.4;;;;;;;7.85;70.30176;947.5992;;;;
2019/04/05 20:21:32;;;;;;;33.3;23.2;;;;;;;7.83;70.76953;947.6262;;;;
2019/04/05 20:23:57;;;;;;;36.2;25.3;;;;;;;7.84;70.49707;947.6208;;;;
2019/04/05 20:26:23;;;;;;;36.2;26.2;;;;;;;7.82;70.66504;947.6359;;;;
2019/04/05 20:28:48;;;;;;;42.5;28.4;;;;;;;7.8;71.5332;947.6083;;;;
2019/04/05 20:31:13;;;;;;;46.1;30.4;;;;;;;7.75;72.36133;947.6184;;;;
2019/04/05 20:33:39;;;;;;;41.3;28.9;;;;;;;7.73;72.62012;947.664;;;;
2019/04/05 20:36:05;;;;;;;40.6;29.4;;;;;;;7.52;73.24023;947.6188;;;;
2019/04/05 20:38:30;;;;;;;39.7;27;;;;;;;7.46;73.53711;947.5836;;;;
2019/04/05 20:40:55;;;;;;;41.3;28.6;;;;;;;7.48;73.46191;947.662;;;;
2019/04/05 20:43:21;;;;;;;45.3;29.4;;;;;;;7.34;74.03223;947.6354;;;;
2019/04/05 20:45:46;;;;;;;47.4;31.5;;;;;;;7.31;74.33887;947.6636;;;;
2019/04/05 20:48:13;;;;;;;44.7;29.7;;;;;;;7.14;75.09766;947.641;;;;
2019/04/05 20:50:38;;;;;;;43.8;29.5;;;;;;;7.1;75.18164;947.6453;;;;
2019/04/05 20:53:04;;;;;;;47.3;30.3;;;;;;;7.1;75.19336;947.565;;;;
2019/04/05 20:55:30;;;;;;;48.8;30.8;;;;;;;6.99;75.67773;947.5972;;;;
2019/04/05 20:57:56;;;;;;;45.6;29.4;;;;;;;6.86;76.36328;947.6291;;;;
2019/04/05 21:00:21;;;;;;;49.2;30.2;;;;;;;6.82;76.64453;947.6756;;;;
2019/04/05 21:02:47;;;;;;;44.5;29.2;;;;;;;6.68;77.24805;947.7161;;;;
2019/04/05 21:05:12;;;;;;;45.4;30.3;;;;;;;6.57;77.77539;947.8008;;;;
2019/04/05 21:07:38;;;;;;;45.6;30.7;;;;;;;6.5;78.02539;947.8296;;;;
2019/04/05 21:10:04;;;;;;;45.6;31.3;;;;;;;6.5;78.06152;947.901;;;;
2019/04/05 21:12:45;;;;;;;47.6;30.7;;;;;;;6.37;78.76855;947.8769;;;;
2019/04/05 21:15:16;;;;;;;44.8;30.6;;;;;;;6.3;79.22363;947.8424;;;;
2019/04/05 21:17:57;;;;;;;40.3;28.8;;;;;;;6.24;79.63477;947.8703;;;;
2019/04/05 21:20:34;;;;;;;45.2;30.9;;;;;;;6.12;80.0918;947.8621;;;;
2019/04/05 21:22:59;;;;;;;45.1;29.1;;;;;;;6;80.81152;947.8281;;;;
2019/04/05 21:25:24;;;;;;;45.3;28.2;;;;;;;6;80.75684;947.8147;;;;
2019/04/05 21:27:49;;;;;;;42.5;28.7;;;;;;;5.94;81.13281;947.8466;;;;
2019/04/05 21:30:14;;;;;;;49.2;32;;;;;;;5.76;81.64453;947.7729;;;;
2019/04/05 21:32:39;;;;;;;47.2;30.4;;;;;;;5.73;81.89063;947.8434;;;;
2019/04/05 21:35:05;;;;;;;46.4;30.8;;;;;;;5.67;82.39355;947.7477;;;;
2019/04/05 21:37:30;;;;;;;45.7;29.6;;;;;;;5.65;82.58301;947.7841;;;;
2019/04/05 21:39:55;;;;;;;46.1;30.3;;;;;;;5.69;82.19238;947.7537;;;;
2019/04/05 21:42:20;;;;;;;44.8;30.1;;;;;;;5.64;82.43262;947.8571;;;;
2019/04/05 21:44:45;;;;;;;47.8;31.2;;;;;;;5.63;82.44238;947.8325;;;;
2019/04/05 21:47:29;;;;;;;48.7;30.9;;;;;;;5.61;82.68945;947.83;;;;
2019/04/05 21:49:54;;;;;;;50.1;33.2;;;;;;;5.63;82.64746;947.8325;;;;
2019/04/05 21:52:20;;;;;;;49.3;31.9;;;;;;;5.52;83.03711;947.8689;;;;
2019/04/05 21:54:45;;;;;;;48;31.5;;;;;;;5.55;83.15723;947.858;;;;
2019/04/05 21:57:10;;;;;;;49.8;32.3;;;;;;;5.46;83.60645;947.7827;;;;
2019/04/05 21:59:35;;;;;;;53.8;32.4;;;;;;;5.41;83.83594;947.7883;;;;
2019/04/05 22:02:00;;;;;;;55.1;33.2;;;;;;;5.47;83.83691;947.7731;;;;
2019/04/05 22:04:26;;;;;;;53.7;33.5;;;;;;;5.55;83.53516;947.7516;;;;
2019/04/05 22:06:51;;;;;;;55.7;32.6;;;;;;;5.58;83.5625;947.6938;;;;
2019/04/05 22:09:16;;;;;;;52.7;33.8;;;;;;;5.72;83.03027;947.6881;;;;
2019/04/05 22:11:44;;;;;;;54.1;34.6;;;;;;;5.75;82.87598;947.7307;;;;
2019/04/05 22:14:09;;;;;;;56.2;33.6;;;;;;;5.78;82.71094;947.7783;;;;
2019/04/05 22:16:34;;;;;;;55;34.1;;;;;;;5.76;82.77441;947.7388;;;;
2019/04/05 22:18:59;;;;;;;54.9;34;;;;;;;5.8;82.60059;947.7472;;;;
2019/04/05 22:21:24;;;;;;;53.4;33.7;;;;;;;5.83;82.56055;947.7441;;;;
2019/04/05 22:23:50;;;;;;;54.6;34.2;;;;;;;5.81;82.70703;947.7751;;;;
2019/04/05 22:26:15;;;;;;;54.1;33.5;;;;;;;5.74;82.94238;947.8339;;;;
2019/04/05 22:28:40;;;;;;;54;35;;;;;;;5.73;82.78125;947.8133;;;;
2019/04/05 22:31:06;;;;;;;58.3;34.1;;;;;;;5.63;83.11719;947.8492;;;;
2019/04/05 22:33:31;;;;;;;56.5;35.3;;;;;;;5.56;83.44531;947.865;;;;
2019/04/05 22:35:57;;;;;;;58.7;35.6;;;;;;;5.46;84.0293;947.8295;;;;
2019/04/05 22:38:22;;;;;;;62.3;36.2;;;;;;;5.34;84.59863;947.8245;;;;
2019/04/05 22:40:48;;;;;;;58.5;34.9;;;;;;;5.27;85.06152;947.8237;;;;
2019/04/05 22:43:14;;;;;;;60.6;36.9;;;;;;;5.29;85.03418;947.8167;;;;
2019/04/05 22:45:39;;;;;;;57.9;36.4;;;;;;;5.33;84.78906;947.8976;;;;
2019/04/05 22:48:05;;;;;;;56.9;34.6;;;;;;;5.28;84.86035;947.9619;;;;
2019/04/05 22:50:30;;;;;;;60.1;35.8;;;;;;;5.19;85.28711;947.9919;;;;
2019/04/05 22:52:55;;;;;;;59.7;35.5;;;;;;;5.05;85.99902;947.9182;;;;
2019/04/05 22:55:21;;;;;;;62.9;35.9;;;;;;;5;86.38867;947.9102;;;;
2019/04/05 22:57:46;;;;;;;57.1;33.7;;;;;;;4.99;86.31641;947.9408;;;;
2019/04/05 23:00:11;;;;;;;59.9;36.2;;;;;;;5;86.29688;947.9439;;;;
2019/04/05 23:02:36;;;;;;;58.6;35.8;;;;;;;4.94;86.4082;947.9122;;;;
2019/04/05 23:05:01;;;;;;;59.4;33.8;;;;;;;4.99;86.43164;947.9194;;;;
2019/04/05 23:07:28;;;;;;;58.1;34.1;;;;;;;4.98;86.38281;947.9297;;;;
2019/04/05 23:09:53;;;;;;;60.5;34.9;;;;;;;4.91;87.13184;947.9239;;;;
2019/04/05 23:12:19;;;;;;;59.2;36.3;;;;;;;4.93;86.88672;948.0017;;;;
2019/04/05 23:14:44;;;;;;;59.1;35.1;;;;;;;4.91;87.42773;948.0887;;;;
2019/04/05 23:17:09;;;;;;;53.1;32.6;;;;;;;5.03;87.125;948.0715;;;;
2019/04/05 23:19:35;;;;;;;62.5;36;;;;;;;5.04;86.85156;948.1254;;;;
2019/04/05 23:21:59;;;;;;;64.5;36.1;;;;;;;5.06;87.02539;948.1201;;;;
2019/04/05 23:24:24;;;;;;;56.6;34.5;;;;;;;5.27;86.44238;948.1401;;;;
2019/04/05 23:26:50;;;;;;;59.1;35.1;;;;;;;5.42;85.07129;948.2053;;;;
2019/04/05 23:29:14;;;;;;;51.6;33.4;;;;;;;5.55;84.74219;948.1205;;;;
2019/04/05 23:31:40;;;;;;;59.3;35.1;;;;;;;5.59;84.8291;948.1418;;;;
2019/04/05 23:34:05;;;;;;;53.3;31.8;;;;;;;5.72;83.96582;948.0981;;;;
2019/04/05 23:36:30;;;;;;;54.3;32.6;;;;;;;5.93;83.09473;948.1395;;;;
2019/04/05 23:38:56;;;;;;;60.8;36;;;;;;;5.74;84.66504;948.075;;;;
2019/04/05 23:41:21;;;;;;;57;35.7;;;;;;;5.63;85.33984;948.0991;;;;
2019/04/05 23:43:46;;;;;;;61.5;37.5;;;;;;;5.72;85.16406;948.0903;;;;
2019/04/05 23:46:11;;;;;;;61.2;37.1;;;;;;;5.71;84.89941;948.0908;;;;
2019/04/05 23:48:36;;;;;;;54;34;;;;;;;5.84;83.13379;948.0854;;;;
2019/04/05 23:51:01;;;;;;;53.2;33.2;;;;;;;6.03;82.18848;948.121;;;;
2019/04/05 23:53:28;;;;;;;52.6;33.8;;;;;;;5.99;82.52441;948.1163;;;;
2019/04/05 23:55:53;;;;;;;58.3;35.6;;;;;;;6.08;81.95898;948.1495;;;;
2019/04/05 23:58:19;;;;;;;61.2;36.4;;;;;;;5.98;82.625;948.1894;;;;
